Time;durP1;ratioP1;P1;durP2;ratioP2;P2;SDS_P1;SDS_P2;PMS_P1;PMS_P2;Temp;Humidity;BMP_temperature;BMP_pressure;BME280_temperature;BME280_humidity;BME280_pressure;Samples;Min_cycle;Max_cycle;Signal;HPM_P1;HPM_P2
2023/08/21 00:01:36;;;;;;;11.10;4.93;;;17.00;99.90;;;;;;5105590;28;20081;-68
2023/08/21 00:04:02;;;;;;;10.63;4.72;;;17.10;99.90;;;;;;5095971;28;20032;-68
2023/08/21 00:06:27;;;;;;;12.60;5.00;;;17.00;99.90;;;;;;5108895;28;20024;-68
2023/08/21 00:08:53;;;;;;;12.73;4.45;;;17.00;99.90;;;;;;5097797;28;20515;-68
2023/08/21 00:11:18;;;;;;;16.77;4.90;;;17.00;99.90;;;;;;5100803;28;20101;-68
2023/08/21 00:13:44;;;;;;;13.45;4.50;;;17.00;99.90;;;;;;5106619;28;20069;-67
2023/08/21 00:16:11;;;;;;;11.52;4.47;;;17.00;99.90;;;;;;5095815;28;20032;-68
2023/08/21 00:18:37;;;;;;;15.38;4.75;;;17.00;99.90;;;;;;5108257;28;20047;-67
2023/08/21 00:21:02;;;;;;;10.30;4.18;;;17.00;99.90;;;;;;5100744;28;20055;-67
2023/08/21 00:23:28;;;;;;;12.52;4.13;;;17.00;99.90;;;;;;5100333;28;20028;-69
2023/08/21 00:25:53;;;;;;;12.05;3.63;;;17.00;99.90;;;;;;5107594;28;20032;-68
2023/08/21 00:28:19;;;;;;;14.15;5.53;;;17.10;99.90;;;;;;5095714;28;20024;-69
2023/08/21 00:30:44;;;;;;;12.20;4.55;;;17.10;99.90;;;;;;5106351;28;20047;-67
2023/08/21 00:33:10;;;;;;;12.38;4.68;;;17.10;99.90;;;;;;5101542;28;20034;-68
2023/08/21 00:35:35;;;;;;;16.98;7.20;;;17.10;99.90;;;;;;5099229;28;20031;-68
2023/08/21 00:38:01;;;;;;;12.80;5.53;;;17.10;99.90;;;;;;5108402;28;20451;-68
2023/08/21 00:40:26;;;;;;;9.32;4.10;;;17.10;99.90;;;;;;5095406;28;20055;-67
2023/08/21 00:42:52;;;;;;;10.10;3.72;;;17.10;99.90;;;;;;5105529;28;20020;-68
2023/08/21 00:45:17;;;;;;;10.48;3.85;;;17.10;99.90;;;;;;5102313;28;20027;-68
2023/08/21 00:47:43;;;;;;;11.35;3.67;;;17.00;99.90;;;;;;5098273;28;20073;-66
2023/08/21 00:50:11;;;;;;;16.42;4.20;;;17.00;99.90;;;;;;5108418;28;20040;-66
2023/08/21 00:52:38;;;;;;;11.30;3.72;;;17.00;99.90;;;;;;5096295;28;20044;-66
2023/08/21 00:55:04;;;;;;;13.02;3.50;;;17.00;99.90;;;;;;5103947;28;20047;-69
2023/08/21 00:57:31;;;;;;;13.32;3.38;;;16.90;99.90;;;;;;5104355;28;20059;-68
2023/08/21 00:59:56;;;;;;;10.00;3.30;;;16.90;99.90;;;;;;5096377;28;20119;-69
2023/08/21 01:02:22;;;;;;;14.88;3.88;;;17.00;99.90;;;;;;5108612;28;20099;-68
2023/08/21 01:04:47;;;;;;;9.10;3.08;;;17.00;99.90;;;;;;5101060;28;20023;-68
2023/08/21 01:07:13;;;;;;;9.18;3.03;;;17.00;99.90;;;;;;5105705;28;20024;-69
2023/08/21 01:09:45;;;;;;;10.18;3.03;;;17.00;99.90;;;;;;5109194;28;20044;-68
2023/08/21 01:12:34;;;;;;;9.30;2.95;;;17.00;99.90;;;;;;5098647;27;20024;-69
2023/08/21 01:15:04;;;;;;;11.25;3.55;;;17.10;99.90;;;;;;5107899;28;20043;-68
2023/08/21 01:17:31;;;;;;;11.43;3.55;;;17.10;99.90;;;;;;5107461;28;20026;-67
2023/08/21 01:19:57;;;;;;;12.45;3.70;;;17.10;99.90;;;;;;5098686;28;20139;-69
2023/08/21 01:22:37;;;;;;;12.27;4.88;;;17.20;99.90;;;;;;5112051;28;20070;-67
2023/08/21 01:25:04;;;;;;;15.18;3.92;;;17.20;99.90;;;;;;5103468;28;20031;-67
2023/08/21 01:27:30;;;;;;;8.98;3.55;;;17.20;99.90;;;;;;5103368;28;20028;-68
2023/08/21 01:29:56;;;;;;;12.15;3.28;;;17.20;99.90;;;;;;5110848;28;20068;-67
2023/08/21 01:32:32;;;;;;;10.05;3.05;;;17.10;99.90;;;;;;5098102;28;20024;-67
2023/08/21 01:34:58;;;;;;;9.27;3.10;;;17.00;99.90;;;;;;5107796;28;20528;-67
2023/08/21 01:37:25;;;;;;;8.32;3.03;;;17.00;99.90;;;;;;5106225;28;20055;-68
2023/08/21 01:39:51;;;;;;;9.18;3.28;;;16.90;99.90;;;;;;5100157;27;20040;-69
2023/08/21 01:42:17;;;;;;;9.75;3.28;;;16.80;99.90;;;;;;5111660;28;20043;-69
2023/08/21 01:44:45;;;;;;;9.73;3.60;;;16.80;99.90;;;;;;5100152;28;20026;-67
2023/08/21 01:47:11;;;;;;;9.68;3.75;;;16.70;99.90;;;;;;5105663;28;20031;-66
2023/08/21 01:49:37;;;;;;;10.32;3.58;;;16.60;99.90;;;;;;5107530;28;20035;-67
2023/08/21 01:52:02;;;;;;;7.72;3.38;;;16.60;99.90;;;;;;5098305;28;20056;-67
2023/08/21 01:54:28;;;;;;;12.95;4.10;;;16.50;99.90;;;;;;5111510;28;20070;-67
2023/08/21 01:56:54;;;;;;;9.82;3.90;;;16.50;99.90;;;;;;5102017;28;20035;-67
2023/08/21 01:59:19;;;;;;;10.35;4.10;;;16.40;99.90;;;;;;5104016;28;20457;-67
2023/08/21 02:01:45;;;;;;;10.10;3.92;;;16.40;99.90;;;;;;5108595;28;20032;-68
2023/08/21 02:04:10;;;;;;;8.85;3.67;;;16.40;99.90;;;;;;5097957;28;20060;-68
2023/08/21 02:06:36;;;;;;;8.85;3.60;;;16.30;99.90;;;;;;5110311;28;20031;-67
2023/08/21 02:09:01;;;;;;;7.47;3.35;;;16.30;99.90;;;;;;5102942;28;20036;-68
2023/08/21 02:11:27;;;;;;;10.77;3.40;;;16.30;99.90;;;;;;5103026;28;19947;-67
2023/08/21 02:13:53;;;;;;;6.38;3.67;;;16.20;99.90;;;;;;5109533;28;20034;-67
2023/08/21 02:16:19;;;;;;;11.77;3.95;;;16.20;99.90;;;;;;5097073;28;20020;-67
2023/08/21 02:18:45;;;;;;;11.00;3.75;;;16.10;99.90;;;;;;5108812;28;20126;-67
2023/08/21 02:21:11;;;;;;;8.85;3.78;;;16.10;99.90;;;;;;5103472;28;20023;-67
2023/08/21 02:23:37;;;;;;;9.98;3.90;;;16.00;99.90;;;;;;5101419;28;20032;-67
2023/08/21 02:26:02;;;;;;;10.02;3.72;;;16.00;99.90;;;;;;5110560;28;20496;-67
2023/08/21 02:28:28;;;;;;;11.20;3.92;;;16.00;99.90;;;;;;5096974;28;20519;-67
2023/08/21 02:30:54;;;;;;;11.55;4.03;;;16.00;99.90;;;;;;5107206;28;20560;-67
2023/08/21 02:33:19;;;;;;;10.70;3.80;;;16.00;99.90;;;;;;5104633;28;20023;-67
2023/08/21 02:35:45;;;;;;;11.65;3.78;;;16.00;99.90;;;;;;5099997;28;20056;-67
2023/08/21 02:38:10;;;;;;;12.13;3.53;;;15.90;99.90;;;;;;5110392;28;20051;-67
2023/08/21 02:40:36;;;;;;;9.82;3.75;;;15.90;99.90;;;;;;5098473;28;20027;-68
2023/08/21 02:43:01;;;;;;;7.82;3.60;;;15.90;99.90;;;;;;5105451;28;20426;-68
2023/08/21 02:45:27;;;;;;;11.48;3.88;;;15.90;99.90;;;;;;5093985;28;20044;-68
2023/08/21 02:47:53;;;;;;;13.48;3.42;;;16.00;99.90;;;;;;5108958;28;20475;-67
2023/08/21 02:50:18;;;;;;;12.63;3.63;;;16.00;99.90;;;;;;5096713;28;20081;-68
2023/08/21 02:52:44;;;;;;;13.23;4.40;;;16.10;99.90;;;;;;5108109;28;20388;-67
2023/08/21 02:55:10;;;;;;;8.10;3.72;;;16.10;99.90;;;;;;5102869;28;20461;-68
2023/08/21 02:57:35;;;;;;;12.77;3.70;;;16.20;99.90;;;;;;5100646;28;20024;-67
2023/08/21 03:00:01;;;;;;;6.30;3.50;;;16.20;99.90;;;;;;5109837;28;20039;-67
2023/08/21 03:02:27;;;;;;;9.93;3.30;;;16.20;99.90;;;;;;5096843;28;20027;-67
2023/08/21 03:04:52;;;;;;;9.85;3.38;;;16.20;99.90;;;;;;5106946;28;20039;-67
2023/08/21 03:07:20;;;;;;;5.65;3.30;;;16.10;99.90;;;;;;5103717;28;20027;-68
2023/08/21 03:09:48;;;;;;;10.93;3.30;;;16.10;99.90;;;;;;5098866;28;20032;-69
2023/08/21 03:12:14;;;;;;;10.63;3.50;;;16.00;99.90;;;;;;5109743;28;20027;-66
2023/08/21 03:14:40;;;;;;;8.57;3.47;;;16.00;99.90;;;;;;5098212;28;20161;-67
2023/08/21 03:17:05;;;;;;;10.07;3.70;;;16.00;99.90;;;;;;5104559;28;20028;-67
2023/08/21 03:19:31;;;;;;;9.90;3.60;;;15.90;99.90;;;;;;5105369;28;20033;-66
2023/08/21 03:21:56;;;;;;;10.13;3.88;;;15.90;99.90;;;;;;5097482;28;20461;-67
2023/08/21 03:24:22;;;;;;;8.60;3.92;;;15.80;99.90;;;;;;5109686;28;20413;-67
2023/08/21 03:26:48;;;;;;;11.52;3.88;;;15.80;99.90;;;;;;5098453;28;20071;-67
2023/08/21 03:29:13;;;;;;;9.85;3.80;;;15.80;99.90;;;;;;5103106;28;20357;-66
2023/08/21 03:31:39;;;;;;;9.00;3.92;;;15.70;99.90;;;;;;5106283;28;20054;-67
2023/08/21 03:34:04;;;;;;;8.77;3.65;;;15.70;99.90;;;;;;5096049;28;20027;-66
2023/08/21 03:36:31;;;;;;;9.88;3.90;;;15.70;99.90;;;;;;5109149;28;20016;-66
2023/08/21 03:39:01;;;;;;;8.98;3.85;;;15.70;99.90;;;;;;5098860;28;20114;-66
2023/08/21 03:41:27;;;;;;;7.57;3.15;;;15.60;99.90;;;;;;5101159;28;20039;-66
2023/08/21 03:43:53;;;;;;;9.48;3.40;;;15.60;99.90;;;;;;5107666;28;20036;-67
2023/08/21 03:46:18;;;;;;;10.68;3.35;;;15.60;99.90;;;;;;5095923;28;20028;-68
2023/08/21 03:48:44;;;;;;;10.20;3.25;;;15.60;99.90;;;;;;5106778;28;20016;-67
2023/08/21 03:51:09;;;;;;;10.30;3.40;;;15.50;99.90;;;;;;5101503;28;20051;-67
2023/08/21 03:53:35;;;;;;;11.05;3.63;;;15.50;99.90;;;;;;5100131;28;20031;-67
2023/08/21 03:56:01;;;;;;;13.38;4.32;;;15.50;99.90;;;;;;5109130;28;20045;-68
2023/08/21 03:58:26;;;;;;;12.65;3.80;;;15.50;99.90;;;;;;5095853;28;20016;-65
2023/08/21 04:00:55;;;;;;;10.55;3.88;;;15.50;99.90;;;;;;5105980;28;20475;-65
2023/08/21 04:03:21;;;;;;;7.90;3.47;;;15.50;99.90;;;;;;5103595;28;20458;-66
2023/08/21 04:05:47;;;;;;;8.90;3.30;;;15.50;99.90;;;;;;5098646;28;20038;-66
2023/08/21 04:08:12;;;;;;;9.65;2.90;;;15.50;99.90;;;;;;5109512;28;20491;-67
2023/08/21 04:10:38;;;;;;;12.00;3.50;;;15.50;99.90;;;;;;5097171;28;20044;-67
2023/08/21 04:13:05;;;;;;;10.30;3.80;;;15.50;99.90;;;;;;5104401;28;20020;-67
2023/08/21 04:15:30;;;;;;;9.57;3.30;;;15.40;99.90;;;;;;5104796;28;20048;-66
2023/08/21 04:17:56;;;;;;;10.02;3.85;;;15.40;99.90;;;;;;5095918;28;20058;-67
2023/08/21 04:20:23;;;;;;;9.07;3.50;;;15.40;99.90;;;;;;5109662;28;20028;-66
2023/08/21 04:22:49;;;;;;;9.02;3.72;;;15.30;99.90;;;;;;5098508;28;20020;-67
2023/08/21 04:25:15;;;;;;;8.10;3.35;;;15.30;99.90;;;;;;5102461;28;20489;-66
2023/08/21 04:27:41;;;;;;;11.65;3.60;;;15.30;99.90;;;;;;5106065;28;20023;-68
2023/08/21 04:30:08;;;;;;;8.55;3.95;;;15.30;99.90;;;;;;5094516;28;20042;-68
2023/08/21 04:32:34;;;;;;;7.93;3.80;;;15.30;99.90;;;;;;5108501;28;20054;-67
2023/08/21 04:35:00;;;;;;;9.57;4.00;;;15.30;99.90;;;;;;5098912;28;20051;-67
2023/08/21 04:37:25;;;;;;;8.52;3.72;;;15.30;99.90;;;;;;5101141;28;20024;-67
2023/08/21 04:39:54;;;;;;;9.82;3.40;;;15.30;99.90;;;;;;5110764;28;20019;-67
2023/08/21 04:42:21;;;;;;;9.00;3.80;;;15.30;99.90;;;;;;5099158;28;20460;-67
2023/08/21 04:44:46;;;;;;;9.32;4.10;;;15.30;99.90;;;;;;5109493;28;20035;-68
2023/08/21 04:47:21;;;;;;;12.10;4.13;;;15.30;99.90;;;;;;5105579;28;20357;-67
2023/08/21 04:49:49;;;;;;;11.27;4.00;;;15.30;99.90;;;;;;5101614;28;20040;-66
2023/08/21 04:52:15;;;;;;;7.90;3.50;;;15.40;99.90;;;;;;5112665;28;20093;-67
2023/08/21 04:54:40;;;;;;;9.18;3.65;;;15.40;99.90;;;;;;5101015;28;20020;-66
2023/08/21 04:57:06;;;;;;;10.77;4.05;;;15.50;99.90;;;;;;5106423;28;20032;-67
2023/08/21 04:59:31;;;;;;;8.38;3.20;;;15.50;99.90;;;;;;5108060;28;20030;-65
2023/08/21 05:01:57;;;;;;;12.85;3.83;;;15.50;99.90;;;;;;5100154;28;20024;-65
2023/08/21 05:04:22;;;;;;;14.50;4.47;;;15.50;99.90;;;;;;5112842;28;20019;-65
2023/08/21 05:06:48;;;;;;;11.10;3.83;;;15.60;99.90;;;;;;5100133;28;20054;-65
2023/08/21 05:09:14;;;;;;;9.93;3.65;;;15.60;99.90;;;;;;5106260;28;20048;-65
2023/08/21 05:11:40;;;;;;;9.05;3.60;;;15.60;99.90;;;;;;5109084;28;20023;-66
2023/08/21 05:14:06;;;;;;;11.88;3.85;;;15.60;99.90;;;;;;5098968;28;20024;-67
2023/08/21 05:16:31;;;;;;;8.85;3.75;;;15.70;99.90;;;;;;5111835;28;20046;-66
2023/08/21 05:18:57;;;;;;;12.98;4.70;;;15.70;99.90;;;;;;5103158;28;20088;-66
2023/08/21 05:21:22;;;;;;;8.98;3.70;;;15.80;99.90;;;;;;5104461;28;20114;-66
2023/08/21 05:23:48;;;;;;;8.98;3.90;;;15.80;99.90;;;;;;5109768;28;20027;-66
2023/08/21 05:26:14;;;;;;;11.23;3.67;;;15.90;99.90;;;;;;5098881;28;20032;-66
2023/08/21 05:28:39;;;;;;;12.60;4.15;;;16.00;99.90;;;;;;5110598;28;20031;-66
2023/08/21 05:31:05;;;;;;;8.32;3.50;;;16.00;99.90;;;;;;5104029;28;20069;-66
2023/08/21 05:33:30;;;;;;;12.27;3.67;;;16.10;99.90;;;;;;5103307;28;20053;-67
2023/08/21 05:35:59;;;;;;;9.93;4.15;;;16.20;99.90;;;;;;5110540;28;20024;-66
2023/08/21 05:38:24;;;;;;;11.43;4.43;;;16.20;99.90;;;;;;5097203;28;20036;-66
2023/08/21 05:40:50;;;;;;;11.35;3.95;;;16.30;99.90;;;;;;5109228;28;20024;-66
2023/08/21 05:43:16;;;;;;;9.23;3.90;;;16.40;99.90;;;;;;5104828;28;20035;-66
2023/08/21 05:45:42;;;;;;;10.77;4.60;;;16.50;99.90;;;;;;5101630;28;20020;-65
2023/08/21 05:48:08;;;;;;;10.55;4.38;;;16.50;99.90;;;;;;5111277;28;20039;-66
2023/08/21 05:50:36;;;;;;;10.98;4.53;;;16.60;99.90;;;;;;5096224;28;20398;-66
2023/08/21 05:53:03;;;;;;;12.88;4.93;;;16.70;99.90;;;;;;5106948;28;20047;-66
2023/08/21 05:55:30;;;;;;;12.82;4.22;;;16.80;99.90;;;;;;5106843;28;20035;-66
2023/08/21 05:57:55;;;;;;;12.45;3.95;;;16.90;99.90;;;;;;5099341;28;20032;-65
2023/08/21 06:00:21;;;;;;;15.98;4.63;;;17.00;99.90;;;;;;5105100;28;20043;-67
2023/08/21 06:02:47;;;;;;;10.55;3.95;;;17.20;99.90;;;;;;5100778;28;20463;-66
2023/08/21 06:05:13;;;;;;;12.55;4.05;;;17.20;99.90;;;;;;5105196;28;20047;-66
2023/08/21 06:07:43;;;;;;;13.93;4.07;;;17.40;99.90;;;;;;5108012;28;20149;-67
2023/08/21 06:10:11;;;;;;;14.85;4.80;;;17.50;99.90;;;;;;5097657;28;20043;-66
2023/08/21 06:12:37;;;;;;;12.35;4.95;;;17.60;99.90;;;;;;5109923;28;20020;-67
2023/08/21 06:15:03;;;;;;;10.63;4.28;;;17.80;99.90;;;;;;5102855;28;20095;-65
2023/08/21 06:17:29;;;;;;;14.18;4.22;;;17.90;99.90;;;;;;5102311;28;20028;-66
2023/08/21 06:19:55;;;;;;;17.58;4.05;;;18.10;99.90;;;;;;5109473;28;20024;-66
2023/08/21 06:22:21;;;;;;;12.88;4.18;;;18.10;99.90;;;;;;5097423;28;20111;-66
2023/08/21 06:24:46;;;;;;;13.35;5.25;;;18.30;99.90;;;;;;5108641;28;20105;-64
2023/08/21 06:27:12;;;;;;;15.55;3.50;;;18.40;99.90;;;;;;5103677;28;20115;-66
2023/08/21 06:29:37;;;;;;;10.48;4.32;;;18.60;99.90;;;;;;5101241;28;20064;-66
2023/08/21 06:32:03;;;;;;;10.15;3.40;;;18.80;99.90;;;;;;5110793;28;20027;-66
2023/08/21 06:34:29;;;;;;;11.82;3.47;;;19.10;99.90;;;;;;5097463;28;20043;-66
2023/08/21 06:36:54;;;;;;;14.73;3.45;;;19.30;99.90;;;;;;5107432;28;20020;-66
2023/08/21 06:39:20;;;;;;;13.07;4.00;;;19.50;99.90;;;;;;5104622;28;20032;-67
2023/08/21 06:41:45;;;;;;;12.90;3.05;;;19.70;99.90;;;;;;5099731;28;20036;-67
2023/08/21 06:44:11;;;;;;;13.82;3.78;;;20.00;99.90;;;;;;5110099;28;20031;-67
2023/08/21 06:46:36;;;;;;;14.93;3.58;;;20.50;99.90;;;;;;5098309;28;20024;-66
2023/08/21 06:49:02;;;;;;;9.20;3.13;;;21.00;99.90;;;;;;5105750;28;20114;-66
2023/08/21 06:51:28;;;;;;;17.70;3.15;;;21.50;99.90;;;;;;5105325;28;20055;-66
2023/08/21 06:53:53;;;;;;;10.10;2.95;;;22.10;99.90;;;;;;5098429;28;20115;-66
2023/08/21 06:56:19;;;;;;;9.15;3.15;;;22.80;99.90;;;;;;5110606;28;20063;-66
2023/08/21 06:58:44;;;;;;;13.15;4.18;;;23.40;99.90;;;;;;5099269;28;20020;-65
2023/08/21 07:01:10;;;;;;;10.32;2.83;;;24.00;99.90;;;;;;5104392;28;20028;-66
2023/08/21 07:03:35;;;;;;;14.52;3.58;;;24.50;99.90;;;;;;5106097;28;20102;-66
2023/08/21 07:06:01;;;;;;;11.25;3.97;;;24.90;99.90;;;;;;5097681;28;20036;-66
2023/08/21 07:08:27;;;;;;;13.98;3.38;;;25.20;99.90;;;;;;5101270;28;20427;-66
2023/08/21 07:10:54;;;;;;;8.38;3.45;;;25.80;99.90;;;;;;5093214;28;20044;-67
2023/08/21 07:13:20;;;;;;;12.30;2.90;;;26.10;99.90;;;;;;5104019;28;20095;-67
2023/08/21 07:15:46;;;;;;;9.38;2.53;;;26.50;99.90;;;;;;5099059;28;20063;-67
2023/08/21 07:18:12;;;;;;;11.80;2.65;;;26.70;99.90;;;;;;5109930;28;20108;-68
2023/08/21 07:20:38;;;;;;;13.38;3.47;;;26.50;99.90;;;;;;5098247;28;20042;-68
2023/08/21 07:23:03;;;;;;;9.55;2.50;;;26.40;99.90;;;;;;5105302;28;20024;-67
2023/08/21 07:25:29;;;;;;;12.48;3.50;;;26.40;99.90;;;;;;5105697;28;20459;-67
2023/08/21 07:27:55;;;;;;;13.13;4.18;;;26.30;99.90;;;;;;5098054;28;20479;-68
2023/08/21 07:30:22;;;;;;;15.10;4.10;;;26.20;99.90;;;;;;5109681;28;20035;-67
2023/08/21 07:32:48;;;;;;;10.48;2.40;;;25.90;99.90;;;;;;5099290;28;20034;-67
2023/08/21 07:35:14;;;;;;;10.77;2.88;;;25.60;99.90;;;;;;5103610;27;20027;-67
2023/08/21 07:37:43;;;;;;;9.05;2.47;;;25.50;99.90;;;;;;5105514;28;20043;-67
2023/08/21 07:40:08;;;;;;;8.50;2.25;;;25.50;99.90;;;;;;5096637;28;20074;-66
2023/08/21 07:42:34;;;;;;;11.43;2.60;;;25.60;99.90;;;;;;5108850;28;20047;-66
2023/08/21 07:44:59;;;;;;;8.55;2.13;;;25.80;99.90;;;;;;5092235;28;20031;-68
2023/08/21 07:47:27;;;;;;;8.10;1.95;;;26.10;99.90;;;;;;5103445;28;20025;-67
2023/08/21 07:49:53;;;;;;;8.73;2.45;;;26.40;99.90;;;;;;5097850;28;20097;-66
2023/08/21 07:52:19;;;;;;;10.82;2.83;;;26.70;99.90;;;;;;5094738;28;20495;-66
2023/08/21 07:54:45;;;;;;;8.52;2.10;;;26.80;99.90;;;;;;5107526;28;20024;-66
2023/08/21 07:57:11;;;;;;;9.52;2.20;;;27.00;99.90;;;;;;5100798;28;20031;-67
2023/08/21 07:59:36;;;;;;;9.52;2.20;;;27.30;99.90;;;;;;5099678;28;20055;-66
2023/08/21 08:02:03;;;;;;;13.35;2.38;;;27.60;99.90;;;;;;5108618;28;20375;-66
2023/08/21 08:04:28;;;;;;;6.88;1.70;;;28.00;99.90;;;;;;5091955;28;20035;-67
2023/08/21 08:06:54;;;;;;;9.07;2.45;;;28.50;99.90;;;;;;5099393;28;20016;-66
2023/08/21 08:09:19;;;;;;;5.70;2.13;;;28.80;99.90;;;;;;5109742;28;20019;-67
2023/08/21 08:11:45;;;;;;;7.13;1.73;;;29.40;99.90;;;;;;5098471;28;20528;-67
2023/08/21 08:14:10;;;;;;;7.60;2.10;;;29.70;99.90;;;;;;5108221;28;20483;-67
2023/08/21 08:16:36;;;;;;;8.60;1.88;;;30.10;99.90;;;;;;5097331;28;20528;-68
2023/08/21 08:19:02;;;;;;;10.00;2.17;;;30.70;99.30;;;;;;5112342;28;20111;-68
2023/08/21 08:21:29;;;;;;;8.23;2.20;;;31.40;98.50;;;;;;5112770;28;20036;-67
2023/08/21 08:23:55;;;;;;;9.60;2.20;;;32.00;97.30;;;;;;5112785;28;20072;-67
2023/08/21 08:26:21;;;;;;;7.40;2.83;;;32.70;96.60;;;;;;5112464;28;20032;-68
2023/08/21 08:28:47;;;;;;;8.20;1.80;;;33.20;95.60;;;;;;5111314;28;20035;-68
2023/08/21 08:31:17;;;;;;;8.15;1.85;;;33.40;94.80;;;;;;5112652;28;20061;-68
2023/08/21 08:33:43;;;;;;;10.68;2.00;;;33.50;94.80;;;;;;5112998;28;20057;-67
2023/08/21 08:36:08;;;;;;;9.43;2.17;;;33.80;94.00;;;;;;5112948;28;20023;-68
2023/08/21 08:38:34;;;;;;;7.72;1.60;;;33.80;93.70;;;;;;5112663;28;20028;-68
2023/08/21 08:41:02;;;;;;;7.55;1.85;;;33.90;93.50;;;;;;5112668;28;20028;-68
2023/08/21 08:43:28;;;;;;;8.02;1.60;;;34.10;93.10;;;;;;5106604;28;20031;-67
2023/08/21 08:45:57;;;;;;;11.02;2.35;;;34.70;92.60;;;;;;5091757;28;20555;-67
2023/08/21 08:48:24;;;;;;;5.47;1.67;;;35.30;91.70;;;;;;5108359;28;20453;-67
2023/08/21 08:50:51;;;;;;;9.32;2.05;;;35.60;91.60;;;;;;5108423;28;20059;-67
2023/08/21 08:53:18;;;;;;;6.45;1.70;;;36.00;90.60;;;;;;5091383;28;20085;-66
2023/08/21 08:55:44;;;;;;;8.82;2.38;;;35.90;90.70;;;;;;5092235;28;20078;-66
2023/08/21 08:58:10;;;;;;;7.35;2.58;;;36.10;90.60;;;;;;5091764;28;20035;-66
2023/08/21 09:00:36;;;;;;;8.50;2.60;;;36.40;90.10;;;;;;5103464;28;20024;-66
2023/08/21 09:03:03;;;;;;;8.48;2.30;;;36.80;90.00;;;;;;5112557;28;20028;-68
2023/08/21 09:05:28;;;;;;;10.23;3.38;;;37.30;88.60;;;;;;5112566;28;20032;-66
2023/08/21 09:08:11;;;;;;;8.35;2.30;;;37.70;87.40;;;;;;5112642;28;20027;-69
2023/08/21 09:10:38;;;;;;;9.25;3.13;;;37.90;86.70;;;;;;5105375;28;20044;-68
2023/08/21 09:13:18;;;;;;;6.13;2.20;;;38.30;85.80;;;;;;5096330;28;20507;-68
2023/08/21 09:15:48;;;;;;;8.43;2.28;;;38.40;84.80;;;;;;5108313;28;20024;-67
2023/08/21 09:18:15;;;;;;;9.50;2.22;;;38.40;83.90;;;;;;5111005;28;20042;-68
2023/08/21 09:20:41;;;;;;;6.13;1.70;;;38.40;84.30;;;;;;5112441;28;20036;-67
2023/08/21 09:23:07;;;;;;;7.00;1.75;;;38.60;83.20;;;;;;5103682;28;20023;-67
2023/08/21 09:25:40;;;;;;;5.38;1.92;;;38.70;82.50;;;;;;5106189;28;20030;-67
2023/08/21 09:28:07;;;;;;;5.70;1.80;;;38.70;83.50;;;;;;5107239;28;20527;-68
2023/08/21 09:30:53;;;;;;;7.00;1.75;;;38.80;82.30;;;;;;5099753;28;20048;-67
2023/08/21 09:33:20;;;;;;;4.65;1.58;;;38.40;82.50;;;;;;5098770;28;20035;-68
2023/08/21 09:35:47;;;;;;;8.48;2.05;;;38.30;82.60;;;;;;5093676;28;20035;-68
2023/08/21 09:38:14;;;;;;;5.13;1.63;;;38.20;82.20;;;;;;5107745;28;20020;-68
2023/08/21 09:40:49;;;;;;;5.78;1.75;;;38.20;81.60;;;;;;5115696;28;20038;-67
2023/08/21 09:43:15;;;;;;;8.18;1.70;;;38.50;82.00;;;;;;5099244;28;20026;-68
2023/08/21 09:45:40;;;;;;;6.05;1.42;;;39.10;81.10;;;;;;5107024;28;20028;-67
2023/08/21 09:48:07;;;;;;;5.10;1.40;;;39.50;80.50;;;;;;5106592;28;20031;-69
2023/08/21 09:50:34;;;;;;;7.18;1.40;;;40.00;79.90;;;;;;5100820;28;20035;-66
2023/08/21 09:53:02;;;;;;;6.13;1.60;;;40.60;79.10;;;;;;5098093;28;20056;-67
2023/08/21 09:55:31;;;;;;;5.30;1.52;;;40.90;78.30;;;;;;5108915;28;20032;-68
2023/08/21 09:57:59;;;;;;;6.60;1.70;;;41.10;77.60;;;;;;5105359;28;20023;-68
2023/08/21 10:00:34;;;;;;;6.85;1.80;;;41.40;77.60;;;;;;5100937;28;20028;-67
2023/08/21 10:03:03;;;;;;;6.03;1.40;;;41.50;77.10;;;;;;5113823;28;20078;-68
2023/08/21 10:05:31;;;;;;;4.20;1.27;;;41.50;76.90;;;;;;5108356;28;20036;-67
2023/08/21 10:07:58;;;;;;;5.95;1.65;;;41.60;76.60;;;;;;5107773;28;20035;-67
2023/08/21 10:10:24;;;;;;;6.75;1.55;;;41.60;75.90;;;;;;5105900;28;20503;-68
2023/08/21 10:12:50;;;;;;;5.00;1.52;;;41.60;75.90;;;;;;5113804;28;20033;-68
2023/08/21 10:15:16;;;;;;;5.68;1.75;;;41.60;75.40;;;;;;5098795;28;20059;-68
2023/08/21 10:17:43;;;;;;;4.38;1.42;;;41.50;75.60;;;;;;5106836;28;20026;-66
2023/08/21 10:20:11;;;;;;;4.78;1.30;;;41.60;75.40;;;;;;5106390;28;20100;-68
2023/08/21 10:22:46;;;;;;;4.05;1.50;;;41.60;75.00;;;;;;5099080;28;20425;-67
2023/08/21 10:25:27;;;;;;;4.45;1.20;;;41.60;74.10;;;;;;5097195;28;20058;-68
2023/08/21 10:27:58;;;;;;;3.78;1.30;;;41.50;74.20;;;;;;5105243;28;20024;-68
2023/08/21 10:30:28;;;;;;;5.80;1.40;;;41.60;73.60;;;;;;5105276;28;20078;-68
2023/08/21 10:32:58;;;;;;;5.83;1.33;;;41.60;72.90;;;;;;5114407;28;20028;-67
2023/08/21 10:35:29;;;;;;;4.78;1.33;;;41.60;72.90;;;;;;5108867;28;20028;-68
2023/08/21 10:38:15;;;;;;;5.85;1.83;;;41.60;72.90;;;;;;5108591;28;20050;-67
2023/08/21 10:41:01;;;;;;;2.60;1.40;;;41.60;72.50;;;;;;5097704;28;20028;-69
2023/08/21 10:43:45;;;;;;;5.30;1.60;;;41.50;72.50;;;;;;5099891;28;20031;-69
2023/08/21 10:46:12;;;;;;;6.15;1.50;;;41.30;72.30;;;;;;5112645;28;20028;-68
2023/08/21 10:48:39;;;;;;;4.13;0.90;;;41.30;72.40;;;;;;5113316;27;20024;-68
2023/08/21 10:51:07;;;;;;;2.55;0.90;;;41.30;71.60;;;;;;5112244;28;20483;-69
2023/08/21 10:53:33;;;;;;;5.15;1.20;;;41.30;71.50;;;;;;5114342;28;20056;-70
2023/08/21 10:56:05;;;;;;;4.22;1.10;;;41.20;72.00;;;;;;5103660;28;20066;-68
2023/08/21 10:58:45;;;;;;;2.78;0.80;;;41.30;71.20;;;;;;5108722;28;20024;-68
2023/08/21 11:01:13;;;;;;;6.75;1.23;;;41.60;70.90;;;;;;5097500;28;20031;-69
2023/08/21 11:03:40;;;;;;;5.57;1.48;;;41.90;70.50;;;;;;5109684;28;20031;-68
2023/08/21 11:06:09;;;;;;;3.47;1.30;;;42.00;69.20;;;;;;5112435;28;20027;-68
2023/08/21 11:08:36;;;;;;;3.60;1.40;;;42.00;69.60;;;;;;5098036;28;20396;-68
2023/08/21 11:11:03;;;;;;;2.30;1.10;;;42.00;69.30;;;;;;5109846;28;20421;-69
2023/08/21 11:13:29;;;;;;;6.30;1.42;;;42.10;69.40;;;;;;5099634;28;20471;-69
2023/08/21 11:15:59;;;;;;;4.40;1.08;;;42.20;69.40;;;;;;5103897;28;20024;-68
2023/08/21 11:18:30;;;;;;;4.03;1.10;;;42.30;68.40;;;;;;5107597;28;20088;-68
2023/08/21 11:21:04;;;;;;;2.85;0.93;;;42.60;68.80;;;;;;5096978;28;20039;-71
2023/08/21 11:23:34;;;;;;;3.53;1.05;;;42.90;68.30;;;;;;5107161;28;20031;-67
2023/08/21 11:26:01;;;;;;;3.58;0.90;;;42.90;67.10;;;;;;5093338;28;20095;-68
2023/08/21 11:28:28;;;;;;;3.28;1.10;;;43.00;67.00;;;;;;5097042;28;20111;-68
2023/08/21 11:30:55;;;;;;;3.50;1.02;;;43.10;65.90;;;;;;5098257;28;20032;-71
2023/08/21 11:33:21;;;;;;;4.00;1.27;;;42.90;67.20;;;;;;5098445;28;20023;-68
2023/08/21 11:35:47;;;;;;;5.72;1.02;;;42.70;67.60;;;;;;5104441;28;20549;-69
2023/08/21 11:38:18;;;;;;;3.30;1.00;;;42.50;67.80;;;;;;5105634;28;20520;-69
2023/08/21 11:40:52;;;;;;;5.90;1.20;;;42.50;67.70;;;;;;5100633;28;20035;-69
2023/08/21 11:43:17;;;;;;;4.03;1.48;;;42.40;68.10;;;;;;5093151;28;20020;-68
2023/08/21 11:45:45;;;;;;;3.28;1.20;;;42.30;68.30;;;;;;5100425;28;20035;-70
2023/08/21 11:48:11;;;;;;;2.60;0.90;;;42.20;67.80;;;;;;5099841;28;20055;-69
2023/08/21 11:50:37;;;;;;;3.25;0.90;;;42.10;67.60;;;;;;5108164;28;20118;-71
2023/08/21 11:53:03;;;;;;;4.15;1.33;;;41.90;67.40;;;;;;5096148;28;20067;-69
2023/08/21 11:55:29;;;;;;;1.67;0.88;;;41.80;67.90;;;;;;5106869;28;20024;-69
2023/08/21 11:57:55;;;;;;;3.30;1.20;;;41.70;67.90;;;;;;5102857;28;20047;-71
2023/08/21 12:00:28;;;;;;;4.88;1.30;;;41.60;67.50;;;;;;5099461;28;20447;-71
2023/08/21 12:02:59;;;;;;;5.65;1.23;;;41.00;67.80;;;;;;5109634;28;20032;-70
2023/08/21 12:05:26;;;;;;;2.97;1.08;;;41.00;68.30;;;;;;5096961;28;20123;-69
2023/08/21 12:07:52;;;;;;;4.55;1.17;;;40.80;68.20;;;;;;5103214;28;20028;-69
2023/08/21 12:10:29;;;;;;;2.30;0.90;;;40.60;68.90;;;;;;5105074;28;20035;-71
2023/08/21 12:12:56;;;;;;;3.47;0.90;;;40.60;68.50;;;;;;5095741;28;20033;-69
2023/08/21 12:15:22;;;;;;;6.20;1.20;;;40.40;68.00;;;;;;5107488;28;20128;-68
2023/08/21 12:17:47;;;;;;;3.72;0.95;;;40.10;69.20;;;;;;5101649;28;20502;-69
2023/08/21 12:20:13;;;;;;;5.72;1.60;;;40.10;70.10;;;;;;5099970;28;20020;-69
2023/08/21 12:22:39;;;;;;;6.50;1.80;;;40.10;70.50;;;;;;5108741;28;20032;-67
2023/08/21 12:25:07;;;;;;;5.03;2.13;;;40.20;69.00;;;;;;5099392;28;20047;-68
2023/08/21 12:27:32;;;;;;;4.32;1.42;;;40.30;69.50;;;;;;5102733;28;20036;-69
2023/08/21 12:29:58;;;;;;;4.65;1.40;;;40.40;69.20;;;;;;5101494;28;20097;-70
2023/08/21 12:32:23;;;;;;;3.50;1.80;;;40.50;69.50;;;;;;5107250;28;20043;-69
2023/08/21 12:34:49;;;;;;;3.95;1.23;;;40.10;69.20;;;;;;5111440;28;20035;-71
2023/08/21 12:37:14;;;;;;;7.18;1.50;;;39.90;70.00;;;;;;5101478;28;20054;-71
2023/08/21 12:39:40;;;;;;;5.65;1.30;;;39.80;70.20;;;;;;5104584;28;20031;-70
2023/08/21 12:42:07;;;;;;;3.25;1.33;;;39.70;69.90;;;;;;5103862;28;20054;-69